sensor_id;sensor_type;location;lat;lon;timestamp;temperature;humidity
51884;DHT22;37915;53.254;6.598;2023-05-07T00:01:42;11.30;99.90
51884;DHT22;37915;53.254;6.598;2023-05-07T00:04:08;11.30;99.90
51884;DHT22;37915;53.254;6.598;2023-05-07T00:06:34;11.30;99.90
51884;DHT22;37915;53.254;6.598;2023-05-07T00:09:00;11.30;99.90
51884;DHT22;37915;53.254;6.598;2023-05-07T00:11:27;11.20;99.90
51884;DHT22;37915;53.254;6.598;2023-05-07T00:13:53;11.20;99.90
51884;DHT22;37915;53.254;6.598;2023-05-07T00:16:18;11.20;99.90
51884;DHT22;37915;53.254;6.598;2023-05-07T00:18:44;11.20;99.90
51884;DHT22;37915;53.254;6.598;2023-05-07T00:21:10;11.10;99.90
51884;DHT22;37915;53.254;6.598;2023-05-07T00:23:36;11.10;99.90
51884;DHT22;37915;53.254;6.598;2023-05-07T00:26:02;11.10;99.90
51884;DHT22;37915;53.254;6.598;2023-05-07T00:28:28;11.10;99.90
51884;DHT22;37915;53.254;6.598;2023-05-07T00:30:54;11.10;99.90
51884;DHT22;37915;53.254;6.598;2023-05-07T00:33:20;11.10;99.90
51884;DHT22;37915;53.254;6.598;2023-05-07T00:35:46;11.10;99.90
51884;DHT22;37915;53.254;6.598;2023-05-07T00:38:12;11.10;99.90
51884;DHT22;37915;53.254;6.598;2023-05-07T00:40:37;11.10;99.90
51884;DHT22;37915;53.254;6.598;2023-05-07T00:43:03;11.10;99.90
51884;DHT22;37915;53.254;6.598;2023-05-07T00:45:29;11.00;99.90
51884;DHT22;37915;53.254;6.598;2023-05-07T00:48:00;11.10;99.90
51884;DHT22;37915;53.254;6.598;2023-05-07T00:50:27;11.00;99.90
51884;DHT22;37915;53.254;6.598;2023-05-07T00:52:54;11.10;99.90
51884;DHT22;37915;53.254;6.598;2023-05-07T00:55:21;11.10;99.90
51884;DHT22;37915;53.254;6.598;2023-05-07T00:57:46;11.10;99.90
51884;DHT22;37915;53.254;6.598;2023-05-07T01:00:12;11.00;99.90
51884;DHT22;37915;53.254;6.598;2023-05-07T01:02:39;11.00;99.90
51884;DHT22;37915;53.254;6.598;2023-05-07T01:05:06;11.00;99.90
51884;DHT22;37915;53.254;6.598;2023-05-07T01:07:33;11.00;99.90
51884;DHT22;37915;53.254;6.598;2023-05-07T01:10:00;11.00;99.90
51884;DHT22;37915;53.254;6.598;2023-05-07T01:12:27;11.00;99.90
51884;DHT22;37915;53.254;6.598;2023-05-07T01:14:54;10.90;99.90
51884;DHT22;37915;53.254;6.598;2023-05-07T01:17:20;10.90;99.90
51884;DHT22;37915;53.254;6.598;2023-05-07T01:19:45;10.90;99.90
51884;DHT22;37915;53.254;6.598;2023-05-07T01:22:14;10.90;99.90
51884;DHT22;37915;53.254;6.598;2023-05-07T01:24:41;10.90;99.90
51884;DHT22;37915;53.254;6.598;2023-05-07T01:27:08;10.90;99.90
51884;DHT22;37915;53.254;6.598;2023-05-07T01:29:33;10.90;99.90
51884;DHT22;37915;53.254;6.598;2023-05-07T01:32:00;10.90;99.90
51884;DHT22;37915;53.254;6.598;2023-05-07T01:34:28;10.90;99.90
51884;DHT22;37915;53.254;6.598;2023-05-07T01:36:56;10.90;99.90
51884;DHT22;37915;53.254;6.598;2023-05-07T01:39:27;10.90;99.90
51884;DHT22;37915;53.254;6.598;2023-05-07T01:41:58;10.90;99.90
51884;DHT22;37915;53.254;6.598;2023-05-07T01:44:25;10.90;99.90
51884;DHT22;37915;53.254;6.598;2023-05-07T01:46:52;10.90;99.90
51884;DHT22;37915;53.254;6.598;2023-05-07T01:49:19;10.90;99.90
51884;DHT22;37915;53.254;6.598;2023-05-07T01:51:45;10.90;99.90
51884;DHT22;37915;53.254;6.598;2023-05-07T01:54:10;10.90;99.90
51884;DHT22;37915;53.254;6.598;2023-05-07T01:56:36;10.90;99.90
51884;DHT22;37915;53.254;6.598;2023-05-07T01:59:02;10.90;99.90
51884;DHT22;37915;53.254;6.598;2023-05-07T02:01:27;10.90;99.90
51884;DHT22;37915;53.254;6.598;2023-05-07T02:03:53;10.90;99.90
51884;DHT22;37915;53.254;6.598;2023-05-07T02:06:19;10.90;99.90
51884;DHT22;37915;53.254;6.598;2023-05-07T02:08:46;10.90;99.90
51884;DHT22;37915;53.254;6.598;2023-05-07T02:11:12;10.90;99.90
51884;DHT22;37915;53.254;6.598;2023-05-07T02:13:37;10.90;99.90
51884;DHT22;37915;53.254;6.598;2023-05-07T02:16:04;10.90;99.90
51884;DHT22;37915;53.254;6.598;2023-05-07T02:18:30;10.90;99.90
51884;DHT22;37915;53.254;6.598;2023-05-07T02:20:56;10.90;99.90
51884;DHT22;37915;53.254;6.598;2023-05-07T02:23:27;10.90;99.90
51884;DHT22;37915;53.254;6.598;2023-05-07T02:25:53;10.90;99.90
51884;DHT22;37915;53.254;6.598;2023-05-07T02:28:19;10.90;99.90
51884;DHT22;37915;53.254;6.598;2023-05-07T02:30:44;10.90;99.90
51884;DHT22;37915;53.254;6.598;2023-05-07T02:33:10;10.80;99.90
51884;DHT22;37915;53.254;6.598;2023-05-07T02:35:37;10.90;99.90
51884;DHT22;37915;53.254;6.598;2023-05-07T02:38:03;10.80;99.90
51884;DHT22;37915;53.254;6.598;2023-05-07T02:40:29;10.80;99.90
51884;DHT22;37915;53.254;6.598;2023-05-07T02:42:55;10.80;99.90
51884;DHT22;37915;53.254;6.598;2023-05-07T02:45:21;10.20;99.90
51884;DHT22;37915;53.254;6.598;2023-05-07T02:47:46;10.80;99.90
51884;DHT22;37915;53.254;6.598;2023-05-07T02:50:12;10.80;99.90
51884;DHT22;37915;53.254;6.598;2023-05-07T02:52:38;10.70;99.90
51884;DHT22;37915;53.254;6.598;2023-05-07T02:55:04;10.80;99.90
51884;DHT22;37915;53.254;6.598;2023-05-07T02:57:30;10.70;99.90
51884;DHT22;37915;53.254;6.598;2023-05-07T02:59:57;10.70;99.90
51884;DHT22;37915;53.254;6.598;2023-05-07T03:02:23;10.70;99.90
51884;DHT22;37915;53.254;6.598;2023-05-07T03:04:49;10.70;99.90
51884;DHT22;37915;53.254;6.598;2023-05-07T03:07:14;10.70;99.90
51884;DHT22;37915;53.254;6.598;2023-05-07T03:09:40;10.70;99.90
51884;DHT22;37915;53.254;6.598;2023-05-07T03:12:06;10.70;99.90
51884;DHT22;37915;53.254;6.598;2023-05-07T03:14:38;10.70;99.90
51884;DHT22;37915;53.254;6.598;2023-05-07T03:17:03;10.70;99.90
51884;DHT22;37915;53.254;6.598;2023-05-07T03:19:29;10.60;99.90
51884;DHT22;37915;53.254;6.598;2023-05-07T03:21:56;10.60;99.90
51884;DHT22;37915;53.254;6.598;2023-05-07T03:24:21;10.50;99.90
51884;DHT22;37915;53.254;6.598;2023-05-07T03:26:47;10.50;99.90
51884;DHT22;37915;53.254;6.598;2023-05-07T03:29:13;10.50;99.90
51884;DHT22;37915;53.254;6.598;2023-05-07T03:31:39;10.50;99.90
51884;DHT22;37915;53.254;6.598;2023-05-07T03:34:04;10.50;99.90
51884;DHT22;37915;53.254;6.598;2023-05-07T03:36:30;10.50;99.90
51884;DHT22;37915;53.254;6.598;2023-05-07T03:38:59;10.50;99.90
51884;DHT22;37915;53.254;6.598;2023-05-07T03:41:24;10.40;99.90
51884;DHT22;37915;53.254;6.598;2023-05-07T03:43:51;10.40;99.90
51884;DHT22;37915;53.254;6.598;2023-05-07T03:46:17;10.50;99.90
51884;DHT22;37915;53.254;6.598;2023-05-07T03:48:43;10.40;99.90
51884;DHT22;37915;53.254;6.598;2023-05-07T03:51:09;10.40;99.90
51884;DHT22;37915;53.254;6.598;2023-05-07T03:53:35;10.40;99.90
51884;DHT22;37915;53.254;6.598;2023-05-07T03:56:02;10.40;99.90
51884;DHT22;37915;53.254;6.598;2023-05-07T03:58:28;10.40;99.90
51884;DHT22;37915;53.254;6.598;2023-05-07T04:00:53;10.30;99.90
51884;DHT22;37915;53.254;6.598;2023-05-07T04:03:19;10.40;99.90
51884;DHT22;37915;53.254;6.598;2023-05-07T04:05:45;10.30;99.90
51884;DHT22;37915;53.254;6.598;2023-05-07T04:08:11;10.30;99.90
51884;DHT22;37915;53.254;6.598;2023-05-07T04:10:36;10.30;99.90
51884;DHT22;37915;53.254;6.598;2023-05-07T04:13:02;10.30;99.90
51884;DHT22;37915;53.254;6.598;2023-05-07T04:15:28;10.30;99.90
51884;DHT22;37915;53.254;6.598;2023-05-07T04:17:53;10.30;99.90
51884;DHT22;37915;53.254;6.598;2023-05-07T04:20:19;10.30;99.90
51884;DHT22;37915;53.254;6.598;2023-05-07T04:22:45;10.30;99.90
51884;DHT22;37915;53.254;6.598;2023-05-07T04:25:10;10.30;99.90
51884;DHT22;37915;53.254;6.598;2023-05-07T04:27:36;10.20;99.90
51884;DHT22;37915;53.254;6.598;2023-05-07T04:30:03;10.20;99.90
51884;DHT22;37915;53.254;6.598;2023-05-07T04:32:29;10.20;99.90
51884;DHT22;37915;53.254;6.598;2023-05-07T04:34:56;10.20;99.90
51884;DHT22;37915;53.254;6.598;2023-05-07T04:37:22;10.20;99.90
51884;DHT22;37915;53.254;6.598;2023-05-07T04:39:47;10.20;99.90
51884;DHT22;37915;53.254;6.598;2023-05-07T04:42:18;10.20;99.90
51884;DHT22;37915;53.254;6.598;2023-05-07T04:44:53;10.10;99.90
51884;DHT22;37915;53.254;6.598;2023-05-07T04:47:19;10.20;99.90
51884;DHT22;37915;53.254;6.598;2023-05-07T04:49:45;10.20;99.90
51884;DHT22;37915;53.254;6.598;2023-05-07T04:52:10;10.10;99.90
51884;DHT22;37915;53.254;6.598;2023-05-07T04:54:36;10.20;99.90
51884;DHT22;37915;53.254;6.598;2023-05-07T04:57:03;10.20;99.90
51884;DHT22;37915;53.254;6.598;2023-05-07T04:59:30;10.20;99.90
51884;DHT22;37915;53.254;6.598;2023-05-07T05:01:55;10.20;99.90
51884;DHT22;37915;53.254;6.598;2023-05-07T05:04:21;10.20;99.90
51884;DHT22;37915;53.254;6.598;2023-05-07T05:06:47;10.20;99.90
51884;DHT22;37915;53.254;6.598;2023-05-07T05:09:12;10.20;99.90
51884;DHT22;37915;53.254;6.598;2023-05-07T05:11:38;10.20;99.90
51884;DHT22;37915;53.254;6.598;2023-05-07T05:14:04;10.20;99.90
51884;DHT22;37915;53.254;6.598;2023-05-07T05:16:30;10.20;99.90
51884;DHT22;37915;53.254;6.598;2023-05-07T05:18:56;10.10;99.90
51884;DHT22;37915;53.254;6.598;2023-05-07T05:21:22;10.20;99.90
51884;DHT22;37915;53.254;6.598;2023-05-07T05:23:48;10.20;99.90
51884;DHT22;37915;53.254;6.598;2023-05-07T05:26:13;10.20;99.90
51884;DHT22;37915;53.254;6.598;2023-05-07T05:28:39;10.20;99.90
51884;DHT22;37915;53.254;6.598;2023-05-07T05:31:05;10.20;99.90
51884;DHT22;37915;53.254;6.598;2023-05-07T05:33:31;10.20;99.90
51884;DHT22;37915;53.254;6.598;2023-05-07T05:35:56;10.20;99.90
51884;DHT22;37915;53.254;6.598;2023-05-07T05:38:22;10.20;99.90
51884;DHT22;37915;53.254;6.598;2023-05-07T05:40:48;10.20;99.90
51884;DHT22;37915;53.254;6.598;2023-05-07T05:43:14;10.20;99.90
51884;DHT22;37915;53.254;6.598;2023-05-07T05:45:40;10.70;99.90
51884;DHT22;37915;53.254;6.598;2023-05-07T05:48:06;10.20;99.90
51884;DHT22;37915;53.254;6.598;2023-05-07T05:50:32;10.20;99.90
51884;DHT22;37915;53.254;6.598;2023-05-07T05:52:58;10.20;99.90
51884;DHT22;37915;53.254;6.598;2023-05-07T05:55:24;10.20;99.90
51884;DHT22;37915;53.254;6.598;2023-05-07T05:57:50;10.20;99.90
51884;DHT22;37915;53.254;6.598;2023-05-07T06:00:16;10.20;99.90
51884;DHT22;37915;53.254;6.598;2023-05-07T06:02:42;10.20;99.90
51884;DHT22;37915;53.254;6.598;2023-05-07T06:05:10;10.20;99.90
51884;DHT22;37915;53.254;6.598;2023-05-07T06:07:36;10.20;99.90
51884;DHT22;37915;53.254;6.598;2023-05-07T06:10:01;10.20;99.90
51884;DHT22;37915;53.254;6.598;2023-05-07T06:12:27;10.20;99.90
51884;DHT22;37915;53.254;6.598;2023-05-07T06:14:53;10.20;99.90
51884;DHT22;37915;53.254;6.598;2023-05-07T06:17:18;10.20;99.90
51884;DHT22;37915;53.254;6.598;2023-05-07T06:19:44;10.30;99.90
51884;DHT22;37915;53.254;6.598;2023-05-07T06:22:13;10.20;99.90
51884;DHT22;37915;53.254;6.598;2023-05-07T06:24:39;10.20;99.90
51884;DHT22;37915;53.254;6.598;2023-05-07T06:27:04;10.30;99.90
51884;DHT22;37915;53.254;6.598;2023-05-07T06:29:30;10.20;99.90
51884;DHT22;37915;53.254;6.598;2023-05-07T06:32:06;10.30;99.90
51884;DHT22;37915;53.254;6.598;2023-05-07T06:34:33;10.30;99.90
51884;DHT22;37915;53.254;6.598;2023-05-07T06:36:59;10.30;99.90
51884;DHT22;37915;53.254;6.598;2023-05-07T06:39:24;10.30;99.90
51884;DHT22;37915;53.254;6.598;2023-05-07T06:41:50;10.30;99.90
51884;DHT22;37915;53.254;6.598;2023-05-07T06:44:15;10.30;99.90
51884;DHT22;37915;53.254;6.598;2023-05-07T06:46:41;10.30;99.90
51884;DHT22;37915;53.254;6.598;2023-05-07T06:49:07;10.30;99.90
51884;DHT22;37915;53.254;6.598;2023-05-07T06:51:33;10.40;99.90
51884;DHT22;37915;53.254;6.598;2023-05-07T06:53:59;10.40;99.90
51884;DHT22;37915;53.254;6.598;2023-05-07T06:56:24;10.40;99.90
51884;DHT22;37915;53.254;6.598;2023-05-07T06:58:50;10.40;99.90
51884;DHT22;37915;53.254;6.598;2023-05-07T07:01:16;10.40;99.90
51884;DHT22;37915;53.254;6.598;2023-05-07T07:03:42;10.40;99.90
51884;DHT22;37915;53.254;6.598;2023-05-07T07:06:07;10.40;99.90
51884;DHT22;37915;53.254;6.598;2023-05-07T07:08:33;10.50;99.90
51884;DHT22;37915;53.254;6.598;2023-05-07T07:11:01;10.50;99.90
51884;DHT22;37915;53.254;6.598;2023-05-07T07:13:26;10.40;99.90
51884;DHT22;37915;53.254;6.598;2023-05-07T07:15:52;10.50;99.90
51884;DHT22;37915;53.254;6.598;2023-05-07T07:18:18;10.50;99.90
51884;DHT22;37915;53.254;6.598;2023-05-07T07:20:44;10.50;99.90
51884;DHT22;37915;53.254;6.598;2023-05-07T07:23:10;10.40;99.90
51884;DHT22;37915;53.254;6.598;2023-05-07T07:25:36;10.50;99.90
51884;DHT22;37915;53.254;6.598;2023-05-07T07:28:02;10.40;99.90
51884;DHT22;37915;53.254;6.598;2023-05-07T07:30:27;10.40;99.90
51884;DHT22;37915;53.254;6.598;2023-05-07T07:32:54;10.50;99.90
51884;DHT22;37915;53.254;6.598;2023-05-07T07:35:20;10.40;99.90
51884;DHT22;37915;53.254;6.598;2023-05-07T07:37:47;10.50;99.90
51884;DHT22;37915;53.254;6.598;2023-05-07T07:40:15;10.40;99.90
51884;DHT22;37915;53.254;6.598;2023-05-07T07:42:42;10.40;99.90
51884;DHT22;37915;53.254;6.598;2023-05-07T07:45:08;10.50;99.90
51884;DHT22;37915;53.254;6.598;2023-05-07T07:47:33;10.50;99.90
51884;DHT22;37915;53.254;6.598;2023-05-07T07:49:59;10.50;99.90
51884;DHT22;37915;53.254;6.598;2023-05-07T07:52:25;10.50;99.90
51884;DHT22;37915;53.254;6.598;2023-05-07T07:54:51;10.50;99.90
51884;DHT22;37915;53.254;6.598;2023-05-07T07:57:16;10.50;99.90
51884;DHT22;37915;53.254;6.598;2023-05-07T07:59:42;10.60;99.90
51884;DHT22;37915;53.254;6.598;2023-05-07T08:02:09;10.60;99.90
51884;DHT22;37915;53.254;6.598;2023-05-07T08:04:34;10.60;99.90
51884;DHT22;37915;53.254;6.598;2023-05-07T08:07:00;10.60;99.90
51884;DHT22;37915;53.254;6.598;2023-05-07T08:09:26;10.70;99.90
51884;DHT22;37915;53.254;6.598;2023-05-07T08:11:52;10.70;99.90
51884;DHT22;37915;53.254;6.598;2023-05-07T08:14:18;10.70;99.90
51884;DHT22;37915;53.254;6.598;2023-05-07T08:16:44;10.70;99.90
51884;DHT22;37915;53.254;6.598;2023-05-07T08:19:10;10.70;99.90
51884;DHT22;37915;53.254;6.598;2023-05-07T08:21:38;10.80;99.90
51884;DHT22;37915;53.254;6.598;2023-05-07T08:24:04;10.80;99.90
51884;DHT22;37915;53.254;6.598;2023-05-07T08:26:30;10.90;99.90
51884;DHT22;37915;53.254;6.598;2023-05-07T08:28:56;10.90;99.90
51884;DHT22;37915;53.254;6.598;2023-05-07T08:31:21;10.90;99.90
51884;DHT22;37915;53.254;6.598;2023-05-07T08:33:47;11.00;99.90
51884;DHT22;37915;53.254;6.598;2023-05-07T08:36:13;11.10;99.90
51884;DHT22;37915;53.254;6.598;2023-05-07T08:38:39;11.10;99.90
51884;DHT22;37915;53.254;6.598;2023-05-07T08:41:06;11.10;99.90
51884;DHT22;37915;53.254;6.598;2023-05-07T08:43:33;11.10;99.90
51884;DHT22;37915;53.254;6.598;2023-05-07T08:46:01;11.20;99.90
51884;DHT22;37915;53.254;6.598;2023-05-07T08:48:29;11.20;99.90
51884;DHT22;37915;53.254;6.598;2023-05-07T08:50:58;11.30;99.90
51884;DHT22;37915;53.254;6.598;2023-05-07T08:53:24;11.40;99.90
51884;DHT22;37915;53.254;6.598;2023-05-07T08:55:50;11.50;99.90
51884;DHT22;37915;53.254;6.598;2023-05-07T08:58:16;11.60;99.90
51884;DHT22;37915;53.254;6.598;2023-05-07T09:00:42;11.70;99.90
51884;DHT22;37915;53.254;6.598;2023-05-07T09:03:08;11.70;99.90
51884;DHT22;37915;53.254;6.598;2023-05-07T09:05:33;11.90;99.90
51884;DHT22;37915;53.254;6.598;2023-05-07T09:08:01;11.90;99.90
51884;DHT22;37915;53.254;6.598;2023-05-07T09:10:27;12.00;99.90
51884;DHT22;37915;53.254;6.598;2023-05-07T09:12:53;12.10;99.90
51884;DHT22;37915;53.254;6.598;2023-05-07T09:15:18;12.20;99.90
51884;DHT22;37915;53.254;6.598;2023-05-07T09:17:44;12.20;99.90
51884;DHT22;37915;53.254;6.598;2023-05-07T09:20:10;12.20;99.90
51884;DHT22;37915;53.254;6.598;2023-05-07T09:22:37;12.20;99.90
51884;DHT22;37915;53.254;6.598;2023-05-07T09:25:04;12.20;99.90
51884;DHT22;37915;53.254;6.598;2023-05-07T09:27:30;12.20;99.90
51884;DHT22;37915;53.254;6.598;2023-05-07T09:29:56;12.20;99.90
51884;DHT22;37915;53.254;6.598;2023-05-07T09:32:22;12.30;99.90
51884;DHT22;37915;53.254;6.598;2023-05-07T09:34:48;12.40;99.90
51884;DHT22;37915;53.254;6.598;2023-05-07T09:37:13;12.40;99.90
51884;DHT22;37915;53.254;6.598;2023-05-07T09:39:46;12.50;99.90
51884;DHT22;37915;53.254;6.598;2023-05-07T09:42:13;12.50;99.90
51884;DHT22;37915;53.254;6.598;2023-05-07T09:44:40;12.60;99.90
51884;DHT22;37915;53.254;6.598;2023-05-07T09:47:07;12.60;99.90
51884;DHT22;37915;53.254;6.598;2023-05-07T09:49:38;12.70;99.90
51884;DHT22;37915;53.254;6.598;2023-05-07T09:52:06;12.80;99.90
51884;DHT22;37915;53.254;6.598;2023-05-07T09:54:34;12.80;99.90
51884;DHT22;37915;53.254;6.598;2023-05-07T09:57:04;12.90;99.90
51884;DHT22;37915;53.254;6.598;2023-05-07T09:59:32;12.90;99.90
51884;DHT22;37915;53.254;6.598;2023-05-07T10:02:00;13.00;99.90
51884;DHT22;37915;53.254;6.598;2023-05-07T10:04:26;13.10;99.90
51884;DHT22;37915;53.254;6.598;2023-05-07T10:06:52;13.10;99.90
51884;DHT22;37915;53.254;6.598;2023-05-07T10:09:19;13.20;99.90
51884;DHT22;37915;53.254;6.598;2023-05-07T10:11:45;13.20;99.90
51884;DHT22;37915;53.254;6.598;2023-05-07T10:14:11;13.20;99.90
51884;DHT22;37915;53.254;6.598;2023-05-07T10:16:37;13.30;99.90
51884;DHT22;37915;53.254;6.598;2023-05-07T10:19:03;13.40;99.90
51884;DHT22;37915;53.254;6.598;2023-05-07T10:21:30;13.50;99.90
51884;DHT22;37915;53.254;6.598;2023-05-07T10:24:25;13.50;99.90
51884;DHT22;37915;53.254;6.598;2023-05-07T10:26:51;13.60;99.90
51884;DHT22;37915;53.254;6.598;2023-05-07T10:34:34;13.50;99.90
51884;DHT22;37915;53.254;6.598;2023-05-07T10:37:02;13.50;99.90
51884;DHT22;37915;53.254;6.598;2023-05-07T10:39:28;13.50;99.90
51884;DHT22;37915;53.254;6.598;2023-05-07T10:41:54;13.60;99.90
51884;DHT22;37915;53.254;6.598;2023-05-07T10:44:29;13.60;99.90
51884;DHT22;37915;53.254;6.598;2023-05-07T10:47:16;13.70;99.90
51884;DHT22;37915;53.254;6.598;2023-05-07T10:52:20;13.60;99.90
51884;DHT22;37915;53.254;6.598;2023-05-07T10:54:46;13.60;99.90
51884;DHT22;37915;53.254;6.598;2023-05-07T10:57:34;13.70;99.90
51884;DHT22;37915;53.254;6.598;2023-05-07T11:00:03;13.70;99.90
51884;DHT22;37915;53.254;6.598;2023-05-07T11:05:32;13.70;99.90
51884;DHT22;37915;53.254;6.598;2023-05-07T11:08:02;13.70;99.90
51884;DHT22;37915;53.254;6.598;2023-05-07T11:10:48;13.70;99.90
51884;DHT22;37915;53.254;6.598;2023-05-07T11:13:14;13.70;99.90
51884;DHT22;37915;53.254;6.598;2023-05-07T11:15:47;13.80;99.90
51884;DHT22;37915;53.254;6.598;2023-05-07T11:18:14;13.90;99.90
51884;DHT22;37915;53.254;6.598;2023-05-07T11:20:54;14.00;99.90
51884;DHT22;37915;53.254;6.598;2023-05-07T11:26:04;14.10;99.90
51884;DHT22;37915;53.254;6.598;2023-05-07T11:28:31;14.20;99.90
51884;DHT22;37915;53.254;6.598;2023-05-07T11:30:57;14.40;99.90
51884;DHT22;37915;53.254;6.598;2023-05-07T11:33:23;14.60;99.90
51884;DHT22;37915;53.254;6.598;2023-05-07T11:35:53;14.80;99.90
51884;DHT22;37915;53.254;6.598;2023-05-07T11:38:19;15.00;99.90
51884;DHT22;37915;53.254;6.598;2023-05-07T11:40:52;15.10;99.90
51884;DHT22;37915;53.254;6.598;2023-05-07T11:43:18;15.00;99.90
51884;DHT22;37915;53.254;6.598;2023-05-07T11:45:47;15.00;99.90
51884;DHT22;37915;53.254;6.598;2023-05-07T11:48:14;15.00;99.90
51884;DHT22;37915;53.254;6.598;2023-05-07T11:50:54;15.10;99.90
51884;DHT22;37915;53.254;6.598;2023-05-07T11:53:26;15.20;99.90
51884;DHT22;37915;53.254;6.598;2023-05-07T11:55:53;15.30;99.90
51884;DHT22;37915;53.254;6.598;2023-05-07T11:58:23;15.50;99.90
51884;DHT22;37915;53.254;6.598;2023-05-07T12:00:55;15.60;99.90
51884;DHT22;37915;53.254;6.598;2023-05-07T12:03:21;15.60;99.90
51884;DHT22;37915;53.254;6.598;2023-05-07T12:05:47;15.70;99.90
51884;DHT22;37915;53.254;6.598;2023-05-07T12:08:17;15.90;99.90
51884;DHT22;37915;53.254;6.598;2023-05-07T12:10:44;15.90;99.90
51884;DHT22;37915;53.254;6.598;2023-05-07T12:13:17;16.00;99.90
51884;DHT22;37915;53.254;6.598;2023-05-07T12:15:43;16.10;99.90
51884;DHT22;37915;53.254;6.598;2023-05-07T12:18:10;16.20;99.90
51884;DHT22;37915;53.254;6.598;2023-05-07T12:20:36;16.20;99.90
51884;DHT22;37915;53.254;6.598;2023-05-07T12:23:03;16.40;99.90
51884;DHT22;37915;53.254;6.598;2023-05-07T12:25:34;16.50;99.90
51884;DHT22;37915;53.254;6.598;2023-05-07T12:28:01;16.60;99.90
51884;DHT22;37915;53.254;6.598;2023-05-07T12:30:27;16.60;99.90
51884;DHT22;37915;53.254;6.598;2023-05-07T12:32:54;16.60;99.90
51884;DHT22;37915;53.254;6.598;2023-05-07T12:35:30;16.40;99.90
51884;DHT22;37915;53.254;6.598;2023-05-07T12:37:59;16.30;99.90
51884;DHT22;37915;53.254;6.598;2023-05-07T12:40:55;16.30;99.90
51884;DHT22;37915;53.254;6.598;2023-05-07T12:43:25;16.40;99.90
51884;DHT22;37915;53.254;6.598;2023-05-07T12:45:52;16.60;99.90
51884;DHT22;37915;53.254;6.598;2023-05-07T12:48:19;16.70;99.90
51884;DHT22;37915;53.254;6.598;2023-05-07T12:50:45;16.80;99.90
51884;DHT22;37915;53.254;6.598;2023-05-07T12:53:11;16.80;99.90
51884;DHT22;37915;53.254;6.598;2023-05-07T12:55:48;16.80;99.90
51884;DHT22;37915;53.254;6.598;2023-05-07T12:58:28;16.80;99.90
51884;DHT22;37915;53.254;6.598;2023-05-07T13:00:55;16.80;99.90
51884;DHT22;37915;53.254;6.598;2023-05-07T13:03:29;16.90;99.90
51884;DHT22;37915;53.254;6.598;2023-05-07T13:05:57;17.10;99.90
51884;DHT22;37915;53.254;6.598;2023-05-07T13:08:35;17.10;99.90
51884;DHT22;37915;53.254;6.598;2023-05-07T13:11:02;17.20;99.90
51884;DHT22;37915;53.254;6.598;2023-05-07T13:13:32;17.30;99.90
51884;DHT22;37915;53.254;6.598;2023-05-07T13:15:58;17.40;99.90
51884;DHT22;37915;53.254;6.598;2023-05-07T13:18:28;17.50;99.90
51884;DHT22;37915;53.254;6.598;2023-05-07T13:20:54;17.70;99.90
51884;DHT22;37915;53.254;6.598;2023-05-07T13:23:20;17.60;99.90
51884;DHT22;37915;53.254;6.598;2023-05-07T13:25:46;17.60;99.90
51884;DHT22;37915;53.254;6.598;2023-05-07T13:28:11;17.80;99.90
51884;DHT22;37915;53.254;6.598;2023-05-07T13:30:38;18.00;99.90
51884;DHT22;37915;53.254;6.598;2023-05-07T13:33:03;18.20;99.90
51884;DHT22;37915;53.254;6.598;2023-05-07T13:35:29;18.50;99.90
51884;DHT22;37915;53.254;6.598;2023-05-07T13:37:55;18.70;99.90
51884;DHT22;37915;53.254;6.598;2023-05-07T13:40:22;18.70;99.90
51884;DHT22;37915;53.254;6.598;2023-05-07T13:42:48;18.60;99.90
51884;DHT22;37915;53.254;6.598;2023-05-07T13:45:14;18.40;99.90
51884;DHT22;37915;53.254;6.598;2023-05-07T13:47:41;18.60;99.90
51884;DHT22;37915;53.254;6.598;2023-05-07T13:50:10;18.70;99.90
51884;DHT22;37915;53.254;6.598;2023-05-07T13:52:43;18.80;99.90
51884;DHT22;37915;53.254;6.598;2023-05-07T13:55:16;19.00;99.90
51884;DHT22;37915;53.254;6.598;2023-05-07T13:57:42;19.10;99.90
51884;DHT22;37915;53.254;6.598;2023-05-07T14:00:09;19.00;99.90
51884;DHT22;37915;53.254;6.598;2023-05-07T14:02:34;19.00;99.90
51884;DHT22;37915;53.254;6.598;2023-05-07T14:05:00;19.10;99.90
51884;DHT22;37915;53.254;6.598;2023-05-07T14:07:26;19.10;99.90
51884;DHT22;37915;53.254;6.598;2023-05-07T14:09:51;19.10;99.90
51884;DHT22;37915;53.254;6.598;2023-05-07T14:12:17;19.20;99.90
51884;DHT22;37915;53.254;6.598;2023-05-07T14:14:43;19.40;99.90
51884;DHT22;37915;53.254;6.598;2023-05-07T14:17:08;19.50;99.90
51884;DHT22;37915;53.254;6.598;2023-05-07T14:19:34;19.60;99.90
51884;DHT22;37915;53.254;6.598;2023-05-07T14:22:00;19.60;99.90
51884;DHT22;37915;53.254;6.598;2023-05-07T14:24:25;19.40;99.90
51884;DHT22;37915;53.254;6.598;2023-05-07T14:26:51;19.30;99.90
51884;DHT22;37915;53.254;6.598;2023-05-07T14:29:17;19.10;99.90
51884;DHT22;37915;53.254;6.598;2023-05-07T14:31:45;19.10;99.90
51884;DHT22;37915;53.254;6.598;2023-05-07T14:34:11;18.90;99.90
51884;DHT22;37915;53.254;6.598;2023-05-07T14:36:36;18.80;99.90
51884;DHT22;37915;53.254;6.598;2023-05-07T14:39:03;18.70;99.90
51884;DHT22;37915;53.254;6.598;2023-05-07T14:41:29;18.60;99.90
51884;DHT22;37915;53.254;6.598;2023-05-07T14:43:55;18.60;99.90
51884;DHT22;37915;53.254;6.598;2023-05-07T14:46:21;18.50;99.90
51884;DHT22;37915;53.254;6.598;2023-05-07T14:48:47;18.50;99.90
51884;DHT22;37915;53.254;6.598;2023-05-07T14:51:13;18.50;99.90
51884;DHT22;37915;53.254;6.598;2023-05-07T14:53:40;18.50;99.90
51884;DHT22;37915;53.254;6.598;2023-05-07T14:56:06;18.50;99.90
51884;DHT22;37915;53.254;6.598;2023-05-07T14:58:33;18.50;99.90
51884;DHT22;37915;53.254;6.598;2023-05-07T15:01:01;18.40;99.90
51884;DHT22;37915;53.254;6.598;2023-05-07T15:03:27;18.40;99.90
51884;DHT22;37915;53.254;6.598;2023-05-07T15:05:53;18.30;99.90
51884;DHT22;37915;53.254;6.598;2023-05-07T15:08:19;18.20;99.90
51884;DHT22;37915;53.254;6.598;2023-05-07T15:10:45;18.10;99.90
51884;DHT22;37915;53.254;6.598;2023-05-07T15:13:11;18.00;99.90
51884;DHT22;37915;53.254;6.598;2023-05-07T15:15:38;18.00;99.90
51884;DHT22;37915;53.254;6.598;2023-05-07T15:18:04;18.00;99.90
51884;DHT22;37915;53.254;6.598;2023-05-07T15:20:30;18.00;99.90
51884;DHT22;37915;53.254;6.598;2023-05-07T15:22:56;18.00;99.90
51884;DHT22;37915;53.254;6.598;2023-05-07T15:25:22;17.90;99.90
51884;DHT22;37915;53.254;6.598;2023-05-07T15:27:48;17.90;99.90
51884;DHT22;37915;53.254;6.598;2023-05-07T15:30:14;17.90;99.90
51884;DHT22;37915;53.254;6.598;2023-05-07T15:32:41;17.90;99.90
51884;DHT22;37915;53.254;6.598;2023-05-07T15:35:07;18.00;99.90
51884;DHT22;37915;53.254;6.598;2023-05-07T15:37:33;18.00;99.90
51884;DHT22;37915;53.254;6.598;2023-05-07T15:39:59;18.10;99.90
51884;DHT22;37915;53.254;6.598;2023-05-07T15:42:29;18.20;99.90